createdAt,value
2022-11-16T00:00:24.641Z,22.95
2022-11-16T00:02:53.115Z,22.94
2022-11-16T00:05:25.648Z,22.93
2022-11-16T00:07:56.504Z,22.93
2022-11-16T00:10:24.928Z,22.91
2022-11-16T00:12:53.469Z,22.91
2022-11-16T00:15:23.315Z,22.91
2022-11-16T00:17:51.698Z,22.91
2022-11-16T00:20:20.157Z,22.89
2022-11-16T00:22:49.008Z,22.89
2022-11-16T00:25:17.736Z,22.88
2022-11-16T00:27:46.099Z,22.87
2022-11-16T00:30:15.025Z,22.88
2022-11-16T00:32:45.485Z,22.86
2022-11-16T00:35:14.083Z,22.85
2022-11-16T00:37:42.431Z,22.86
2022-11-16T00:40:12.267Z,22.86
2022-11-16T00:42:40.656Z,22.84
2022-11-16T00:45:10.181Z,22.83
2022-11-16T00:47:38.941Z,22.85
2022-11-16T00:50:10.580Z,22.84
2022-11-16T00:52:38.924Z,22.83
2022-11-16T00:55:08.213Z,22.83
2022-11-16T00:57:37.862Z,22.83
2022-11-16T01:00:08.330Z,22.81
2022-11-16T01:02:36.785Z,22.80
2022-11-16T01:05:05.481Z,22.81
2022-11-16T01:07:35.830Z,22.80
2022-11-16T01:10:05.900Z,22.79
2022-11-16T01:12:33.118Z,22.80
2022-11-16T01:15:01.510Z,22.79
2022-11-16T01:17:30.064Z,22.80
2022-11-16T01:19:58.383Z,22.77
2022-11-16T01:22:26.817Z,22.78
2022-11-16T01:24:56.702Z,22.77
2022-11-16T01:27:26.129Z,22.77
2022-11-16T01:29:55.177Z,22.76
2022-11-16T01:32:23.821Z,22.76
2022-11-16T01:34:52.228Z,22.75
2022-11-16T01:37:31.839Z,22.75
2022-11-16T01:40:01.641Z,22.74
2022-11-16T01:42:31.792Z,22.74
2022-11-16T01:45:05.380Z,22.74
2022-11-16T01:47:34.597Z,22.73
2022-11-16T01:50:10.333Z,22.71
2022-11-16T01:52:41.996Z,22.72
2022-11-16T01:55:12.329Z,22.71
2022-11-16T01:57:52.192Z,22.71
2022-11-16T02:00:20.764Z,22.70
2022-11-16T02:02:59.111Z,22.70
2022-11-16T02:05:50.668Z,22.71
2022-11-16T02:08:43.421Z,22.70
2022-11-16T02:11:24.710Z,22.68
2022-11-16T02:13:59.115Z,22.67
2022-11-16T02:16:31.589Z,22.67
2022-11-16T02:19:03.422Z,22.66
2022-11-16T02:21:38.198Z,22.68
2022-11-16T02:24:34.553Z,22.67
2022-11-16T02:27:46.533Z,22.66
2022-11-16T02:30:18.277Z,22.66
2022-11-16T02:32:49.684Z,22.66
2022-11-16T02:35:20.203Z,22.64
2022-11-16T02:37:52.752Z,22.64
2022-11-16T02:40:22.113Z,22.63
2022-11-16T02:42:52.949Z,22.63
2022-11-16T02:45:24.001Z,22.64
2022-11-16T02:47:53.389Z,22.63
2022-11-16T02:50:23.417Z,22.63
2022-11-16T02:52:52.792Z,22.62
2022-11-16T02:55:21.332Z,22.63
2022-11-16T02:57:51.510Z,22.61
2022-11-16T03:00:24.040Z,22.62
2022-11-16T03:03:02.393Z,22.60
2022-11-16T03:05:35.992Z,22.60
2022-11-16T03:08:11.662Z,22.61
2022-11-16T03:10:58.090Z,22.60
2022-11-16T03:13:28.138Z,22.59
2022-11-16T03:15:58.038Z,22.59
2022-11-16T03:18:27.569Z,22.58
2022-11-16T03:20:58.539Z,22.58
2022-11-16T03:23:27.474Z,22.58
2022-11-16T03:25:56.245Z,22.57
2022-11-16T03:28:27.704Z,22.58
2022-11-16T03:31:05.477Z,22.57
2022-11-16T03:33:36.658Z,22.56
2022-11-16T03:36:07.811Z,22.57
2022-11-16T03:38:36.961Z,22.57
2022-11-16T03:41:08.220Z,22.54
2022-11-16T03:43:37.023Z,22.54
2022-11-16T03:46:07.952Z,22.54
2022-11-16T03:48:36.872Z,22.54
2022-11-16T03:51:10.464Z,22.55
2022-11-16T03:53:40.568Z,22.54
2022-11-16T03:56:10.873Z,22.54
2022-11-16T03:58:40.392Z,22.53
2022-11-16T04:01:10.301Z,22.54
2022-11-16T04:03:39.887Z,22.53
2022-11-16T04:06:28.465Z,22.53
2022-11-16T04:09:14.322Z,22.52
2022-11-16T04:12:00.409Z,22.51
2022-11-16T04:14:45.910Z,22.50
2022-11-16T04:17:36.319Z,22.50
2022-11-16T04:20:23.083Z,22.50
2022-11-16T04:23:12.571Z,22.50
2022-11-16T04:25:41.602Z,22.51
2022-11-16T04:28:16.364Z,22.49
2022-11-16T04:31:18.190Z,22.49
2022-11-16T04:34:13.847Z,22.49
2022-11-16T04:37:04.406Z,22.49
2022-11-16T04:39:33.186Z,22.48
2022-11-16T04:42:19.846Z,22.48
2022-11-16T04:45:08.848Z,22.47
2022-11-16T04:47:49.660Z,22.47
2022-11-16T04:50:20.358Z,22.47
2022-11-16T04:52:50.664Z,22.45
2022-11-16T04:55:19.086Z,22.45
2022-11-16T04:57:49.265Z,22.45
2022-11-16T05:00:18.913Z,22.45
2022-11-16T05:02:47.354Z,22.44
2022-11-16T05:05:15.800Z,22.45
2022-11-16T05:07:47.305Z,22.45
2022-11-16T05:10:22.364Z,22.45
2022-11-16T05:12:51.933Z,22.45
2022-11-16T05:15:20.813Z,22.44
2022-11-16T05:17:51.233Z,22.44
2022-11-16T05:20:41.017Z,22.45
2022-11-16T05:23:31.907Z,22.47
2022-11-16T05:26:05.985Z,22.50
2022-11-16T05:28:34.908Z,22.53
2022-11-16T05:31:04.037Z,22.53
2022-11-16T05:33:33.831Z,22.53
2022-11-16T05:36:02.219Z,22.55
2022-11-16T05:38:32.552Z,22.54
2022-11-16T05:41:02.491Z,22.56
2022-11-16T05:43:31.849Z,22.57
2022-11-16T05:46:08.742Z,22.57
2022-11-16T05:48:37.496Z,22.58
2022-11-16T05:51:07.646Z,22.58
2022-11-16T05:53:37.865Z,22.58
2022-11-16T05:56:07.902Z,22.58
2022-11-16T05:58:40.317Z,22.57
2022-11-16T06:01:08.817Z,22.59
2022-11-16T06:03:37.506Z,22.60
2022-11-16T06:06:06.482Z,22.60
2022-11-16T06:08:35.184Z,22.61
2022-11-16T06:11:09.106Z,22.62
2022-11-16T06:13:38.183Z,22.62
2022-11-16T06:16:08.041Z,22.62
2022-11-16T06:18:38.726Z,22.65
2022-11-16T06:21:07.386Z,22.64
2022-11-16T06:23:35.720Z,22.63
2022-11-16T06:26:04.272Z,22.65
2022-11-16T06:28:35.373Z,22.67
2022-11-16T06:31:04.040Z,22.66
2022-11-16T06:33:37.923Z,22.67
2022-11-16T06:36:10.765Z,22.68
2022-11-16T06:38:39.233Z,22.68
2022-11-16T06:41:08.771Z,22.68
2022-11-16T06:43:43.792Z,22.68
2022-11-16T06:46:12.551Z,22.69
2022-11-16T06:48:41.673Z,22.71
2022-11-16T06:51:13.811Z,22.70
2022-11-16T06:53:42.197Z,22.71
2022-11-16T06:56:10.569Z,22.72
2022-11-16T06:58:45.491Z,22.73
2022-11-16T07:01:15.933Z,22.75
2022-11-16T07:03:46.330Z,22.76
2022-11-16T07:06:16.042Z,22.77
2022-11-16T07:08:46.917Z,22.79
2022-11-16T07:11:20.306Z,22.80
2022-11-16T07:13:50.246Z,22.80
2022-11-16T07:16:19.026Z,22.77
2022-11-16T07:18:56.797Z,22.77
2022-11-16T07:21:25.532Z,22.77
2022-11-16T07:23:55.980Z,22.78
2022-11-16T07:26:24.597Z,22.80
2022-11-16T07:29:00.918Z,22.82
2022-11-16T07:31:30.022Z,22.83
2022-11-16T07:34:27.975Z,22.84
2022-11-16T07:37:06.468Z,22.84
2022-11-16T07:39:34.925Z,22.85
2022-11-16T07:42:06.223Z,22.85
2022-11-16T07:44:55.268Z,22.86
2022-11-16T07:47:23.770Z,22.83
2022-11-16T07:49:52.345Z,22.81
2022-11-16T07:52:22.848Z,22.82
2022-11-16T07:55:11.452Z,22.83
2022-11-16T07:57:40.157Z,22.82
2022-11-16T08:00:13.608Z,22.81
2022-11-16T08:02:41.869Z,22.82
2022-11-16T08:05:16.616Z,22.82
2022-11-16T08:07:45.209Z,22.82
2022-11-16T08:10:14.022Z,22.83
2022-11-16T08:12:42.834Z,22.83
2022-11-16T08:15:15.245Z,22.83
2022-11-16T08:17:44.346Z,22.83
2022-11-16T08:20:14.148Z,22.84
2022-11-16T08:22:43.455Z,22.85
2022-11-16T08:25:12.525Z,22.83
2022-11-16T08:27:43.593Z,22.82
2022-11-16T08:30:15.450Z,22.81
2022-11-16T08:32:45.824Z,22.80
2022-11-16T08:35:15.864Z,22.81
2022-11-16T08:37:45.657Z,22.80
2022-11-16T08:40:14.803Z,22.79
2022-11-16T08:42:44.274Z,22.78
2022-11-16T08:45:15.469Z,22.78
2022-11-16T08:47:43.901Z,22.77
2022-11-16T08:50:12.429Z,22.78
2022-11-16T08:52:41.225Z,22.77
2022-11-16T08:55:10.425Z,22.78
2022-11-16T08:57:40.012Z,22.78
2022-11-16T09:00:12.804Z,22.77
2022-11-16T09:02:42.580Z,22.76
2022-11-16T09:05:12.202Z,22.76
2022-11-16T09:07:41.039Z,22.77
2022-11-16T09:10:11.067Z,22.76
2022-11-16T09:12:39.532Z,22.77
2022-11-16T09:15:08.773Z,22.76
2022-11-16T09:17:37.121Z,22.76
2022-11-16T09:20:08.669Z,22.76
2022-11-16T09:22:36.978Z,22.76
2022-11-16T09:25:06.023Z,22.76
2022-11-16T09:27:34.304Z,22.76
2022-11-16T09:30:02.731Z,22.75
2022-11-16T09:32:31.082Z,22.75
2022-11-16T09:34:59.609Z,22.75
2022-11-16T09:37:29.345Z,22.74
2022-11-16T09:39:58.438Z,22.74
2022-11-16T09:42:33.993Z,22.76
2022-11-16T09:45:06.370Z,22.75
2022-11-16T09:47:42.182Z,22.75
2022-11-16T09:50:18.787Z,22.73
2022-11-16T09:52:48.595Z,22.74
2022-11-16T09:55:23.730Z,22.74
2022-11-16T09:57:52.464Z,22.74
2022-11-16T10:00:23.828Z,22.73
2022-11-16T10:02:59.110Z,22.74
2022-11-16T10:05:28.780Z,22.75
2022-11-16T10:08:01.337Z,22.74
2022-11-16T10:10:34.981Z,22.74
2022-11-16T10:13:06.031Z,22.75
2022-11-16T10:15:42.666Z,22.73
2022-11-16T10:18:18.059Z,22.75
2022-11-16T10:21:00.293Z,22.75
2022-11-16T10:23:37.116Z,22.79
2022-11-16T10:26:08.295Z,22.80
2022-11-16T10:28:48.518Z,22.83
2022-11-16T10:31:19.833Z,22.83
2022-11-16T10:33:48.369Z,22.83
2022-11-16T10:36:17.005Z,22.85
2022-11-16T10:38:46.900Z,22.87
2022-11-16T10:41:19.216Z,22.88
2022-11-16T10:43:47.558Z,22.91
2022-11-16T10:46:18.411Z,22.90
2022-11-16T10:48:51.785Z,22.87
2022-11-16T10:51:20.217Z,22.83
2022-11-16T10:53:49.950Z,22.83
2022-11-16T10:56:20.912Z,22.85
2022-11-16T10:58:53.933Z,22.86
2022-11-16T11:01:33.865Z,22.89
2022-11-16T11:04:16.505Z,22.91
2022-11-16T11:06:45.109Z,22.92
2022-11-16T11:09:24.512Z,22.95
2022-11-16T11:12:19.805Z,22.95
2022-11-16T11:15:02.322Z,22.94
2022-11-16T11:17:30.746Z,22.96
2022-11-16T11:20:00.695Z,22.96
2022-11-16T11:22:29.216Z,22.97
2022-11-16T11:24:59.089Z,22.97
2022-11-16T11:27:29.681Z,22.98
2022-11-16T11:29:59.384Z,23.27
2022-11-16T11:32:31.441Z,23.02
2022-11-16T11:35:01.712Z,22.88
2022-11-16T11:37:31.778Z,22.87
2022-11-16T11:40:21.998Z,22.88
2022-11-16T11:42:58.183Z,22.89
2022-11-16T11:45:29.646Z,22.90
2022-11-16T11:48:00.270Z,22.91
2022-11-16T11:50:38.283Z,22.91
2022-11-16T11:53:08.346Z,22.92
2022-11-16T11:55:38.188Z,22.93
2022-11-16T11:58:07.117Z,22.93
2022-11-16T12:00:50.169Z,22.93
2022-11-16T12:03:44.823Z,22.95
2022-11-16T12:06:19.247Z,22.95
2022-11-16T12:09:09.241Z,22.96
2022-11-16T12:11:47.236Z,22.96
2022-11-16T12:14:22.412Z,22.97
2022-11-16T12:16:53.213Z,22.97
2022-11-16T12:19:32.470Z,22.97
2022-11-16T12:22:07.572Z,22.98
2022-11-16T12:24:42.087Z,22.99
2022-11-16T12:27:17.265Z,22.99
2022-11-16T12:29:48.022Z,22.99
2022-11-16T12:32:30.393Z,23.00
2022-11-16T12:35:06.965Z,23.00
2022-11-16T12:37:39.473Z,23.00
2022-11-16T12:40:21.913Z,23.00
2022-11-16T12:42:52.880Z,23.02
2022-11-16T12:45:32.559Z,23.04
2022-11-16T12:48:15.670Z,23.04
2022-11-16T12:50:48.972Z,23.05
2022-11-16T12:53:26.232Z,23.05
2022-11-16T12:55:57.496Z,23.06
2022-11-16T12:58:33.045Z,23.07
2022-11-16T13:01:05.829Z,23.08
2022-11-16T13:03:37.463Z,23.10
2022-11-16T13:06:07.362Z,23.10
2022-11-16T13:08:39.867Z,23.10
2022-11-16T13:11:11.379Z,23.10
2022-11-16T13:13:41.253Z,23.10
2022-11-16T13:16:09.999Z,23.08
2022-11-16T13:18:40.401Z,23.09
2022-11-16T13:21:12.629Z,23.12
2022-11-16T13:23:46.806Z,23.13
2022-11-16T13:26:18.013Z,23.10
2022-11-16T13:28:52.121Z,23.12
2022-11-16T13:31:21.237Z,23.10
2022-11-16T13:33:51.312Z,23.10
2022-11-16T13:36:45.386Z,23.10
2022-11-16T13:39:21.519Z,23.09
2022-11-16T13:41:50.884Z,23.08
2022-11-16T13:44:28.646Z,23.06
2022-11-16T13:46:59.862Z,23.06
2022-11-16T13:49:31.929Z,23.07
2022-11-16T13:52:21.392Z,23.06
2022-11-16T13:54:50.616Z,23.07
2022-11-16T13:57:24.725Z,23.07
2022-11-16T14:00:08.816Z,23.08
2022-11-16T14:02:39.365Z,23.06
2022-11-16T14:05:17.620Z,23.05
2022-11-16T14:07:47.466Z,23.07
2022-11-16T14:11:00.939Z,23.09
2022-11-16T14:13:38.677Z,23.11
2022-11-16T14:16:44.341Z,23.11
2022-11-16T14:19:50.024Z,23.12
2022-11-16T14:22:36.049Z,23.12
2022-11-16T14:25:07.420Z,23.13
2022-11-16T14:27:36.969Z,23.13
2022-11-16T14:30:07.036Z,23.11
2022-11-16T14:32:41.399Z,23.10
2022-11-16T14:35:25.569Z,23.10
2022-11-16T14:37:58.834Z,23.11
2022-11-16T14:40:27.191Z,23.10
2022-11-16T14:45:44.881Z,23.12
2022-11-16T14:48:17.107Z,23.13
2022-11-16T14:50:45.470Z,23.13
2022-11-16T14:53:16.784Z,23.12
2022-11-16T14:55:46.097Z,23.13
2022-11-16T14:58:18.953Z,23.13
2022-11-16T15:00:54.122Z,23.13
2022-11-16T15:03:24.521Z,23.14
2022-11-16T15:05:52.879Z,23.13
2022-11-16T15:08:23.602Z,23.14
2022-11-16T15:10:52.697Z,23.12
2022-11-16T15:13:21.493Z,23.13
2022-11-16T15:15:50.533Z,23.11
2022-11-16T15:18:20.017Z,23.09
2022-11-16T15:20:52.140Z,23.10
2022-11-16T15:23:27.603Z,23.09
2022-11-16T15:26:00.188Z,23.09
2022-11-16T15:28:29.386Z,23.08
2022-11-16T15:30:59.194Z,23.08
2022-11-16T15:33:29.299Z,23.07
2022-11-16T15:35:58.540Z,23.07
2022-11-16T15:38:28.587Z,23.07
2022-11-16T15:40:58.097Z,23.06
2022-11-16T15:43:27.395Z,23.06
2022-11-16T15:45:55.669Z,23.05
2022-11-16T15:48:27.113Z,23.05
2022-11-16T15:51:04.225Z,23.04
2022-11-16T15:53:39.526Z,23.04
2022-11-16T15:56:09.966Z,23.04
2022-11-16T15:58:39.982Z,23.03
2022-11-16T16:01:09.308Z,23.02
2022-11-16T16:03:38.101Z,22.98
2022-11-16T16:06:08.025Z,22.93
2022-11-16T16:08:38.381Z,22.94
2022-11-16T16:11:27.824Z,22.96
2022-11-16T16:13:59.722Z,23.00
2022-11-16T16:16:29.926Z,23.02
2022-11-16T16:19:03.653Z,23.04
2022-11-16T16:21:45.344Z,23.05
2022-11-16T16:24:35.659Z,23.06
2022-11-16T16:27:03.972Z,23.07
2022-11-16T16:29:32.168Z,23.08
2022-11-16T16:32:00.447Z,23.10
2022-11-16T16:34:28.634Z,23.10
2022-11-16T16:36:56.978Z,23.12
2022-11-16T16:39:26.730Z,23.14
2022-11-16T16:41:54.973Z,23.15
2022-11-16T16:44:23.277Z,23.15
2022-11-16T16:46:51.580Z,23.16
2022-11-16T16:49:19.853Z,23.19
2022-11-16T16:51:48.140Z,23.19
2022-11-16T16:54:16.350Z,23.21
2022-11-16T16:56:46.186Z,23.22
2022-11-16T16:59:14.624Z,23.22
2022-11-16T17:01:42.902Z,23.21
2022-11-16T17:04:11.663Z,23.22
2022-11-16T17:06:43.777Z,23.21
2022-11-16T17:09:14.742Z,23.21
2022-11-16T17:11:43.249Z,23.21
2022-11-16T17:14:13.581Z,23.16
2022-11-16T17:16:44.868Z,23.16
2022-11-16T17:19:14.044Z,23.17
2022-11-16T17:21:42.343Z,23.19
2022-11-16T17:24:10.768Z,23.18
2022-11-16T17:26:39.130Z,23.19
2022-11-16T17:29:07.508Z,23.21
2022-11-16T17:31:41.144Z,23.21
2022-11-16T17:34:13.596Z,23.22
2022-11-16T17:36:42.407Z,23.22
2022-11-16T17:39:10.706Z,23.23
2022-11-16T17:41:38.972Z,23.23
2022-11-16T17:44:07.533Z,23.23
2022-11-16T17:46:37.458Z,23.23
2022-11-16T17:49:05.796Z,23.25
2022-11-16T17:51:34.105Z,23.25
2022-11-16T17:54:02.446Z,23.25
2022-11-16T17:56:30.920Z,23.26
2022-11-16T17:58:59.589Z,23.26
2022-11-16T18:01:28.627Z,23.27
2022-11-16T18:03:58.602Z,23.28
2022-11-16T18:06:29.869Z,23.27
2022-11-16T18:08:58.333Z,23.26
2022-11-16T18:11:27.379Z,23.26
2022-11-16T18:13:56.157Z,23.28
2022-11-16T18:16:25.453Z,23.28
2022-11-16T18:18:58.779Z,23.29
2022-11-16T18:21:27.112Z,23.29
2022-11-16T18:23:55.316Z,23.29
2022-11-16T18:26:24.362Z,23.30
2022-11-16T18:28:53.119Z,23.29
2022-11-16T18:31:22.640Z,23.30
2022-11-16T18:33:50.839Z,23.31
2022-11-16T18:36:21.248Z,23.31
2022-11-16T18:38:49.430Z,23.31
2022-11-16T18:41:19.805Z,23.32
2022-11-16T18:43:51.913Z,23.33
2022-11-16T18:46:20.482Z,23.33
2022-11-16T18:48:49.249Z,23.33
2022-11-16T18:51:18.562Z,23.34
2022-11-16T18:53:48.378Z,23.33
2022-11-16T18:56:17.070Z,23.35
2022-11-16T18:58:53.385Z,23.35
2022-11-16T19:01:23.568Z,23.35
2022-11-16T19:03:52.285Z,23.36
2022-11-16T19:06:20.569Z,23.35
2022-11-16T19:08:55.953Z,23.36
2022-11-16T19:11:24.635Z,23.36
2022-11-16T19:13:54.215Z,23.37
2022-11-16T19:16:22.567Z,23.37
2022-11-16T19:18:50.845Z,23.36
2022-11-16T19:21:19.679Z,23.38
2022-11-16T19:23:50.300Z,23.38
2022-11-16T19:26:19.574Z,23.39
2022-11-16T19:28:48.377Z,23.39
2022-11-16T19:31:17.543Z,23.39
2022-11-16T19:33:45.888Z,23.40
2022-11-16T19:36:14.994Z,23.40
2022-11-16T19:38:44.120Z,23.40
2022-11-16T19:41:14.515Z,23.40
2022-11-16T19:43:42.867Z,23.42
2022-11-16T19:46:12.194Z,23.42
2022-11-16T19:48:41.344Z,23.44
2022-11-16T19:51:10.346Z,23.45
2022-11-16T19:53:39.011Z,23.46
2022-11-16T19:56:08.406Z,23.48
2022-11-16T19:58:38.684Z,23.48
2022-11-16T20:01:08.154Z,23.48
2022-11-16T20:03:38.530Z,23.48
2022-11-16T20:06:08.738Z,23.48
2022-11-16T20:08:37.651Z,23.48
2022-11-16T20:11:13.308Z,23.47
2022-11-16T20:13:43.333Z,23.47
2022-11-16T20:16:12.776Z,23.47
2022-11-16T20:18:41.231Z,23.47
2022-11-16T20:21:10.016Z,23.47
2022-11-16T20:23:38.485Z,23.47
2022-11-16T20:26:07.304Z,23.49
2022-11-16T20:28:36.519Z,23.49
2022-11-16T20:31:08.693Z,23.48
2022-11-16T20:33:37.491Z,23.48
2022-11-16T20:36:07.237Z,23.49
2022-11-16T20:38:35.621Z,23.48
2022-11-16T20:41:11.325Z,23.48
2022-11-16T20:43:40.512Z,23.49
2022-11-16T20:46:10.803Z,23.49
2022-11-16T20:48:39.423Z,23.49
2022-11-16T20:51:08.078Z,23.49
2022-11-16T20:53:36.597Z,23.49
2022-11-16T20:56:06.109Z,23.49
2022-11-16T20:58:34.642Z,23.49
2022-11-16T21:01:02.909Z,23.50
2022-11-16T21:03:32.924Z,23.49
2022-11-16T21:06:01.543Z,23.50
2022-11-16T21:08:30.333Z,23.51
2022-11-16T21:10:58.700Z,23.50
2022-11-16T21:13:44.028Z,23.50
2022-11-16T21:16:15.144Z,23.50
2022-11-16T21:18:44.903Z,23.50
2022-11-16T21:21:13.959Z,23.50
2022-11-16T21:23:45.087Z,23.50
2022-11-16T21:26:14.132Z,23.50
2022-11-16T21:28:44.777Z,23.49
2022-11-16T21:31:14.298Z,23.49
2022-11-16T21:33:42.725Z,23.50
2022-11-16T21:36:13.761Z,23.50
2022-11-16T21:38:42.232Z,23.49
2022-11-16T21:41:10.844Z,23.49
2022-11-16T21:43:40.698Z,23.49
2022-11-16T21:46:14.116Z,23.50
2022-11-16T21:48:42.444Z,23.48
2022-11-16T21:51:12.804Z,23.48
2022-11-16T21:53:41.303Z,23.48
2022-11-16T21:56:12.852Z,23.48
2022-11-16T21:58:41.238Z,23.48
2022-11-16T22:01:09.906Z,23.46
2022-11-16T22:03:38.481Z,23.47
2022-11-16T22:06:25.036Z,23.46
2022-11-16T22:08:54.837Z,23.46
2022-11-16T22:11:23.140Z,23.46
2022-11-16T22:13:51.497Z,23.47
2022-11-16T22:16:20.424Z,23.46
2022-11-16T22:18:48.888Z,23.46
2022-11-16T22:21:17.527Z,23.46
2022-11-16T22:23:46.317Z,23.46
2022-11-16T22:26:16.737Z,23.46
2022-11-16T22:28:45.068Z,23.45
2022-11-16T22:31:14.437Z,23.45
2022-11-16T22:33:43.208Z,23.44
2022-11-16T22:36:12.040Z,23.45
2022-11-16T22:38:42.539Z,23.45
2022-11-16T22:41:11.147Z,23.43
2022-11-16T22:43:41.118Z,23.44
2022-11-16T22:46:11.048Z,23.42
2022-11-16T22:48:41.356Z,23.42
2022-11-16T22:51:14.061Z,23.42
2022-11-16T22:53:42.718Z,23.41
2022-11-16T22:56:11.533Z,23.40
2022-11-16T22:58:41.975Z,23.41
2022-11-16T23:01:10.930Z,23.40
2022-11-16T23:03:40.301Z,23.39
2022-11-16T23:06:09.340Z,23.39
2022-11-16T23:08:38.298Z,23.39
2022-11-16T23:11:25.250Z,23.39
2022-11-16T23:14:12.829Z,23.38
2022-11-16T23:16:41.589Z,23.37
2022-11-16T23:19:30.351Z,23.37
2022-11-16T23:22:16.148Z,23.37
2022-11-16T23:25:01.889Z,23.35
2022-11-16T23:27:31.605Z,23.34
2022-11-16T23:30:07.846Z,23.34
2022-11-16T23:32:39.573Z,23.33
2022-11-16T23:35:08.849Z,23.32
2022-11-16T23:37:40.838Z,23.32
2022-11-16T23:40:10.750Z,23.31
2022-11-16T23:42:56.669Z,23.31
2022-11-16T23:45:27.148Z,23.30
2022-11-16T23:47:56.000Z,23.30
2022-11-16T23:50:24.821Z,23.29
2022-11-16T23:52:53.408Z,23.29
2022-11-16T23:55:23.255Z,23.28
2022-11-16T23:57:52.138Z,23.28
